createdAt,value
2022-11-20T00:01:37.906Z,1.00
2022-11-20T00:04:30.056Z,0.90
2022-11-20T00:07:22.242Z,0.90
2022-11-20T00:10:14.403Z,0.90
2022-11-20T00:13:07.220Z,0.90
2022-11-20T00:16:00.327Z,0.90
2022-11-20T00:18:53.098Z,1.00
2022-11-20T00:21:45.297Z,1.00
2022-11-20T00:24:42.735Z,1.00
2022-11-20T00:27:35.269Z,1.00
2022-11-20T00:30:27.408Z,1.10
2022-11-20T00:33:19.566Z,1.20
2022-11-20T00:36:16.712Z,1.20
2022-11-20T00:39:08.857Z,1.20
2022-11-20T00:42:00.979Z,1.20
2022-11-20T00:44:53.237Z,1.20
2022-11-20T00:47:45.349Z,1.10
2022-11-20T00:50:37.451Z,1.10
2022-11-20T00:53:29.601Z,1.00
2022-11-20T00:56:21.698Z,1.10
2022-11-20T00:59:13.973Z,1.10
2022-11-20T01:02:06.111Z,1.10
2022-11-20T01:04:58.234Z,1.10
2022-11-20T01:07:50.366Z,1.10
2022-11-20T01:10:42.486Z,1.10
2022-11-20T01:13:37.969Z,1.00
2022-11-20T01:16:33.649Z,1.00
2022-11-20T01:19:26.075Z,1.00
2022-11-20T01:22:18.365Z,1.00
2022-11-20T01:25:10.488Z,1.00
2022-11-20T01:28:02.664Z,1.10
2022-11-20T01:30:54.790Z,1.20
2022-11-20T01:33:49.220Z,1.40
2022-11-20T01:36:42.369Z,1.60
2022-11-20T01:39:34.557Z,1.70
2022-11-20T01:42:45.189Z,1.90
2022-11-20T01:45:49.433Z,2.00
2022-11-20T01:48:59.485Z,2.20
2022-11-20T01:51:57.893Z,2.20
2022-11-20T01:55:00.150Z,2.30
2022-11-20T01:57:52.590Z,2.40
2022-11-20T02:00:44.758Z,2.30
2022-11-20T02:03:37.334Z,2.30
2022-11-20T02:06:38.066Z,2.40
2022-11-20T02:09:30.168Z,2.50
2022-11-20T02:12:40.984Z,2.50
2022-11-20T02:15:34.702Z,2.50
2022-11-20T02:18:27.426Z,2.40
2022-11-20T02:21:28.448Z,2.40
2022-11-20T02:24:22.416Z,2.30
2022-11-20T02:27:17.033Z,2.20
2022-11-20T02:30:11.859Z,2.00
2022-11-20T02:33:04.034Z,1.90
2022-11-20T02:35:56.189Z,1.80
2022-11-20T02:38:49.628Z,1.60
2022-11-20T02:41:41.816Z,1.60
2022-11-20T02:44:33.963Z,1.60
2022-11-20T02:47:26.145Z,1.60
2022-11-20T02:50:18.597Z,1.50
2022-11-20T02:53:10.751Z,1.60
2022-11-20T02:56:02.882Z,1.70
2022-11-20T02:58:55.043Z,1.70
2022-11-20T03:01:47.258Z,1.70
2022-11-20T03:04:39.403Z,1.80
2022-11-20T03:07:31.631Z,1.70
2022-11-20T03:10:23.799Z,1.60
2022-11-20T03:13:15.940Z,1.50
2022-11-20T03:16:16.478Z,1.50
2022-11-20T03:19:08.827Z,1.40
2022-11-20T03:22:01.269Z,1.40
2022-11-20T03:24:53.415Z,1.40
2022-11-20T03:27:45.574Z,1.40
2022-11-20T03:30:37.710Z,1.40
2022-11-20T03:33:29.859Z,1.40
2022-11-20T03:36:22.817Z,1.40
2022-11-20T03:39:14.965Z,1.40
2022-11-20T03:42:27.026Z,1.30
2022-11-20T03:45:19.664Z,1.30
2022-11-20T03:48:11.839Z,1.30
2022-11-20T03:51:21.849Z,1.40
2022-11-20T03:54:14.033Z,1.30
2022-11-20T03:57:06.146Z,1.30
2022-11-20T03:59:58.316Z,1.20
2022-11-20T04:02:50.462Z,1.20
2022-11-20T04:05:42.578Z,1.30
2022-11-20T04:08:34.829Z,1.20
2022-11-20T04:11:29.468Z,1.30
2022-11-20T04:14:21.682Z,1.30
2022-11-20T04:17:13.796Z,1.30
2022-11-20T04:20:06.559Z,1.30
2022-11-20T04:22:58.653Z,1.40
2022-11-20T04:25:50.772Z,1.40
2022-11-20T04:28:42.927Z,1.40
2022-11-20T04:31:35.713Z,1.40
2022-11-20T04:34:27.825Z,1.40
2022-11-20T04:37:19.964Z,1.50
2022-11-20T04:40:12.640Z,1.50
2022-11-20T04:43:04.755Z,1.50
2022-11-20T04:45:58.370Z,1.40
2022-11-20T04:48:50.509Z,1.50
2022-11-20T04:51:42.657Z,1.50
2022-11-20T04:54:34.780Z,1.40
2022-11-20T04:57:26.891Z,1.30
2022-11-20T05:00:19.142Z,1.30
2022-11-20T05:03:11.514Z,1.30
2022-11-20T05:06:05.153Z,1.40
2022-11-20T05:08:57.288Z,1.40
2022-11-20T05:11:51.601Z,1.40
2022-11-20T05:14:43.940Z,1.50
2022-11-20T05:17:36.167Z,1.50
2022-11-20T05:20:28.356Z,1.50
2022-11-20T05:23:20.465Z,1.50
2022-11-20T05:26:22.240Z,1.40
2022-11-20T05:29:14.472Z,1.40
2022-11-20T05:32:08.299Z,1.50
2022-11-20T05:35:00.396Z,1.50
2022-11-20T05:37:52.516Z,1.60
2022-11-20T05:40:44.659Z,1.60
2022-11-20T05:43:38.479Z,1.50
2022-11-20T05:46:30.602Z,1.60
2022-11-20T05:49:22.924Z,1.50
2022-11-20T05:52:15.288Z,1.60
2022-11-20T05:55:08.148Z,1.60
2022-11-20T05:58:00.223Z,1.60
2022-11-20T06:00:52.507Z,1.60
2022-11-20T06:03:48.321Z,1.60
2022-11-20T06:06:40.541Z,1.70
2022-11-20T06:09:32.760Z,1.90
2022-11-20T06:12:24.905Z,2.10
2022-11-20T06:15:17.054Z,2.20
2022-11-20T06:18:09.161Z,2.30
2022-11-20T06:21:06.429Z,2.40
2022-11-20T06:23:58.535Z,2.40
2022-11-20T06:26:50.688Z,2.40
2022-11-20T06:29:42.855Z,2.50
2022-11-20T06:32:35.006Z,2.50
2022-11-20T06:35:27.151Z,2.60
2022-11-20T06:38:19.297Z,2.80
2022-11-20T06:41:19.367Z,2.80
2022-11-20T06:44:11.569Z,2.90
2022-11-20T06:47:03.739Z,3.00
2022-11-20T06:49:56.371Z,3.00
2022-11-20T06:52:48.502Z,3.10
2022-11-20T06:55:47.160Z,3.10
2022-11-20T06:58:39.454Z,3.10
2022-11-20T07:01:31.575Z,3.20
2022-11-20T07:04:23.676Z,3.10
2022-11-20T07:07:15.872Z,3.00
2022-11-20T07:10:08.581Z,2.90
2022-11-20T07:13:01.132Z,2.80
2022-11-20T07:15:53.445Z,2.80
2022-11-20T07:18:50.125Z,2.80
2022-11-20T07:21:43.046Z,2.90
2022-11-20T07:24:35.827Z,3.00
2022-11-20T07:27:27.930Z,3.00
2022-11-20T07:30:20.388Z,3.00
2022-11-20T07:33:12.957Z,3.10
2022-11-20T07:36:05.687Z,3.00
2022-11-20T07:38:57.832Z,2.70
2022-11-20T07:41:49.983Z,2.50
2022-11-20T07:44:42.119Z,2.50
2022-11-20T07:47:37.649Z,2.40
2022-11-20T07:50:29.853Z,2.30
2022-11-20T07:53:22.736Z,2.30
2022-11-20T07:56:15.112Z,2.40
2022-11-20T07:59:07.254Z,2.40
2022-11-20T08:01:59.655Z,2.50
2022-11-20T08:04:51.815Z,2.60
2022-11-20T08:07:45.178Z,2.70
2022-11-20T08:10:37.719Z,2.70
2022-11-20T08:13:48.621Z,2.80
2022-11-20T08:16:42.387Z,2.80
2022-11-20T08:19:34.618Z,2.90
2022-11-20T08:22:26.843Z,2.90
2022-11-20T08:25:18.940Z,3.00
2022-11-20T08:28:20.306Z,3.00
2022-11-20T08:31:13.206Z,3.20
2022-11-20T08:34:09.290Z,3.10
2022-11-20T08:37:03.511Z,3.10
2022-11-20T08:39:57.952Z,3.20
2022-11-20T08:42:51.402Z,3.30
2022-11-20T08:45:43.534Z,3.40
2022-11-20T08:48:35.680Z,3.50
2022-11-20T08:51:27.880Z,3.60
2022-11-20T08:54:22.817Z,3.70
2022-11-20T08:57:14.950Z,3.80
2022-11-20T09:00:09.429Z,3.90
2022-11-20T09:03:02.587Z,3.90
2022-11-20T09:06:00.142Z,3.90
2022-11-20T09:08:55.808Z,4.00
2022-11-20T09:11:48.036Z,4.00
2022-11-20T09:14:40.208Z,4.00
2022-11-20T09:17:32.313Z,4.00
2022-11-20T09:20:24.872Z,3.90
2022-11-20T09:23:17.582Z,3.90
2022-11-20T09:26:14.805Z,3.90
2022-11-20T09:29:06.965Z,3.90
2022-11-20T09:31:59.119Z,3.90
2022-11-20T09:34:51.210Z,3.90
2022-11-20T09:37:43.338Z,4.00
2022-11-20T09:40:39.508Z,4.00
2022-11-20T09:43:59.037Z,4.10
2022-11-20T09:47:24.014Z,4.20
2022-11-20T09:50:34.395Z,4.20
2022-11-20T09:53:47.417Z,4.40
2022-11-20T09:56:44.221Z,4.40
2022-11-20T09:59:49.490Z,4.30
2022-11-20T10:02:52.521Z,4.40
2022-11-20T10:05:53.612Z,4.50
2022-11-20T10:09:09.902Z,4.60
2022-11-20T10:12:23.823Z,4.70
2022-11-20T10:15:49.656Z,4.70
2022-11-20T10:18:50.966Z,4.90
2022-11-20T10:22:04.302Z,4.90
2022-11-20T10:25:15.967Z,5.00
2022-11-20T10:28:17.887Z,5.10
2022-11-20T10:31:15.762Z,5.30
2022-11-20T10:34:23.008Z,5.40
2022-11-20T10:37:40.765Z,5.50
2022-11-20T10:40:51.074Z,5.60
2022-11-20T10:43:44.204Z,5.70
2022-11-20T10:46:45.511Z,5.70
2022-11-20T10:49:37.640Z,5.70
2022-11-20T10:52:32.595Z,5.70
2022-11-20T10:55:45.696Z,5.60
2022-11-20T10:59:04.220Z,5.60
2022-11-20T11:01:56.346Z,5.60
2022-11-20T11:04:51.581Z,5.50
2022-11-20T11:07:45.297Z,5.50
2022-11-20T11:10:57.187Z,5.40
2022-11-20T11:13:49.780Z,5.40
2022-11-20T11:16:56.642Z,5.30
2022-11-20T11:19:59.590Z,5.40
2022-11-20T11:22:51.753Z,5.40
2022-11-20T11:25:57.104Z,5.40
2022-11-20T11:29:00.558Z,5.50
2022-11-20T11:31:52.681Z,5.40
2022-11-20T11:34:45.308Z,5.50
2022-11-20T11:37:39.716Z,5.50
2022-11-20T11:40:34.537Z,5.60
2022-11-20T11:43:49.132Z,5.60
2022-11-20T11:46:50.483Z,5.60
2022-11-20T11:49:42.609Z,5.70
2022-11-20T11:52:47.409Z,5.70
2022-11-20T11:55:48.895Z,5.70
2022-11-20T11:58:53.457Z,5.70
2022-11-20T12:01:56.092Z,5.70
2022-11-20T12:04:56.102Z,5.70
2022-11-20T12:07:58.142Z,5.70
2022-11-20T12:10:56.400Z,5.60
2022-11-20T12:13:56.859Z,5.50
2022-11-20T12:16:48.991Z,5.50
2022-11-20T12:19:41.821Z,5.40
2022-11-20T12:23:00.277Z,5.30
2022-11-20T12:25:57.124Z,5.10
2022-11-20T12:29:09.781Z,5.20
2022-11-20T12:32:10.586Z,5.10
2022-11-20T12:35:23.723Z,5.10
2022-11-20T12:38:39.894Z,5.20
2022-11-20T12:42:06.890Z,5.20
2022-11-20T12:45:10.883Z,5.30
2022-11-20T12:48:18.096Z,5.30
2022-11-20T12:51:28.713Z,5.40
2022-11-20T12:54:32.547Z,5.40
2022-11-20T12:57:27.534Z,5.40
2022-11-20T13:00:22.154Z,5.40
2022-11-20T13:03:17.798Z,5.40
2022-11-20T13:06:19.716Z,5.40
2022-11-20T13:09:15.194Z,5.40
2022-11-20T13:12:24.608Z,5.50
2022-11-20T13:15:35.077Z,5.50
2022-11-20T13:18:27.599Z,5.50
2022-11-20T13:21:22.884Z,5.60
2022-11-20T13:24:21.411Z,5.60
2022-11-20T13:27:13.805Z,5.60
2022-11-20T13:30:18.418Z,5.50
2022-11-20T13:33:32.420Z,5.50
2022-11-20T13:36:27.551Z,5.50
2022-11-20T13:39:32.204Z,5.40
2022-11-20T13:42:29.318Z,5.40
2022-11-20T13:45:29.979Z,5.30
2022-11-20T13:48:23.222Z,5.20
2022-11-20T13:51:33.132Z,5.10
2022-11-20T13:55:02.074Z,5.10
2022-11-20T13:58:15.745Z,5.10
2022-11-20T14:01:31.120Z,5.00
2022-11-20T14:04:31.152Z,5.00
2022-11-20T14:07:28.424Z,4.90
2022-11-20T14:10:32.028Z,4.90
2022-11-20T14:13:24.804Z,4.90
2022-11-20T14:16:24.452Z,4.90
2022-11-20T14:19:22.707Z,4.90
2022-11-20T14:22:24.831Z,4.90
2022-11-20T14:25:16.962Z,4.80
2022-11-20T14:28:19.593Z,4.80
2022-11-20T14:31:24.973Z,4.80
2022-11-20T14:34:24.283Z,4.70
2022-11-20T14:37:38.170Z,4.70
2022-11-20T14:40:36.907Z,4.60
2022-11-20T14:43:30.044Z,4.50
2022-11-20T14:46:23.248Z,4.50
2022-11-20T14:49:15.704Z,4.50
2022-11-20T14:52:25.722Z,4.60
2022-11-20T14:55:31.055Z,4.60
2022-11-20T14:58:26.065Z,4.60
2022-11-20T15:01:28.480Z,4.70
2022-11-20T15:04:20.635Z,4.50
2022-11-20T15:07:12.759Z,4.30
2022-11-20T15:10:10.762Z,4.20
2022-11-20T15:13:13.355Z,4.10
2022-11-20T15:16:16.877Z,4.00
2022-11-20T15:19:18.705Z,3.90
2022-11-20T15:22:17.254Z,3.90
2022-11-20T15:25:15.063Z,3.90
2022-11-20T15:28:18.096Z,3.90
2022-11-20T15:31:13.921Z,3.80
2022-11-20T15:34:09.118Z,3.70
2022-11-20T15:37:01.363Z,3.70
2022-11-20T15:39:53.474Z,3.70
2022-11-20T15:43:06.742Z,3.60
2022-11-20T15:46:27.390Z,3.60
2022-11-20T15:49:24.342Z,3.60
2022-11-20T15:52:17.452Z,3.70
2022-11-20T15:55:11.710Z,3.60
2022-11-20T15:58:03.855Z,3.60
2022-11-20T16:00:56.641Z,3.60
2022-11-20T16:03:49.974Z,3.60
2022-11-20T16:06:42.711Z,3.60
2022-11-20T16:09:34.913Z,3.70
2022-11-20T16:12:59.691Z,3.70
2022-11-20T16:15:56.795Z,3.70
2022-11-20T16:18:49.389Z,3.70
2022-11-20T16:21:42.624Z,3.70
2022-11-20T16:24:35.188Z,3.70
2022-11-20T16:27:27.305Z,3.70
2022-11-20T16:30:19.481Z,3.80
2022-11-20T16:33:14.285Z,3.90
2022-11-20T16:36:16.147Z,3.80
2022-11-20T16:39:08.272Z,3.80
2022-11-20T16:42:04.575Z,3.80
2022-11-20T16:44:56.723Z,3.80
2022-11-20T16:47:48.907Z,3.70
2022-11-20T16:50:52.491Z,3.80
2022-11-20T16:53:44.746Z,3.80
2022-11-20T16:56:37.398Z,3.70
2022-11-20T16:59:29.522Z,3.70
2022-11-20T17:02:22.072Z,3.60
2022-11-20T17:05:14.225Z,3.40
2022-11-20T17:08:06.341Z,3.40
2022-11-20T17:11:08.773Z,3.30
2022-11-20T17:14:02.308Z,3.20
2022-11-20T17:16:54.437Z,3.20
2022-11-20T17:19:46.530Z,3.10
2022-11-20T17:22:39.130Z,3.10
2022-11-20T17:25:33.495Z,3.10
2022-11-20T17:28:25.623Z,3.10
2022-11-20T17:31:17.778Z,3.10
2022-11-20T17:34:13.528Z,3.20
2022-11-20T17:37:05.683Z,3.20
2022-11-20T17:39:57.828Z,3.20
2022-11-20T17:42:49.979Z,3.20
2022-11-20T17:45:43.036Z,3.20
2022-11-20T17:48:37.134Z,3.20
2022-11-20T17:51:31.664Z,3.10
2022-11-20T17:54:24.149Z,3.20
2022-11-20T17:57:35.219Z,3.10
2022-11-20T18:00:28.391Z,3.10
2022-11-20T18:03:20.563Z,3.20
2022-11-20T18:06:15.881Z,3.10
2022-11-20T18:09:08.121Z,3.10
2022-11-20T18:12:00.238Z,3.10
2022-11-20T18:14:52.418Z,3.10
2022-11-20T18:17:44.796Z,3.10
2022-11-20T18:20:39.955Z,3.10
2022-11-20T18:23:34.073Z,3.00
2022-11-20T18:26:26.534Z,3.10
2022-11-20T18:29:18.720Z,3.00
2022-11-20T18:32:10.847Z,2.90
2022-11-20T18:35:03.033Z,2.80
2022-11-20T18:37:55.122Z,2.80
2022-11-20T18:40:47.560Z,2.80
2022-11-20T18:43:58.460Z,2.80
2022-11-20T18:46:50.789Z,2.70
2022-11-20T18:49:46.296Z,2.70
2022-11-20T18:52:41.837Z,2.70
2022-11-20T18:55:34.020Z,2.70
2022-11-20T18:58:28.278Z,2.70
2022-11-20T19:01:20.585Z,2.60
2022-11-20T19:04:15.621Z,2.60
2022-11-20T19:07:08.181Z,2.50
2022-11-20T19:10:03.679Z,2.40
2022-11-20T19:12:58.511Z,2.50
2022-11-20T19:15:50.650Z,2.70
2022-11-20T19:18:43.771Z,2.80
2022-11-20T19:21:35.997Z,2.90
2022-11-20T19:24:28.739Z,3.00
2022-11-20T19:27:20.971Z,3.20
2022-11-20T19:30:13.411Z,3.20
2022-11-20T19:33:05.657Z,3.10
2022-11-20T19:35:58.561Z,3.10
2022-11-20T19:38:51.896Z,3.00
2022-11-20T19:41:44.173Z,2.80
2022-11-20T19:44:36.348Z,2.80
2022-11-20T19:47:46.375Z,2.90
2022-11-20T19:50:40.959Z,3.00
2022-11-20T19:53:33.102Z,3.10
2022-11-20T19:56:26.740Z,3.00
2022-11-20T19:59:18.876Z,3.10
2022-11-20T20:02:11.770Z,3.20
2022-11-20T20:05:04.172Z,3.30
2022-11-20T20:07:56.299Z,3.20
2022-11-20T20:10:48.405Z,3.10
2022-11-20T20:13:41.399Z,3.20
2022-11-20T20:16:35.249Z,3.30
2022-11-20T20:19:27.570Z,3.30
2022-11-20T20:22:19.682Z,3.10
2022-11-20T20:25:12.065Z,3.10
2022-11-20T20:28:05.028Z,3.00
2022-11-20T20:30:57.760Z,2.90
2022-11-20T20:33:49.957Z,2.90
2022-11-20T20:36:42.128Z,2.80
2022-11-20T20:39:34.261Z,2.80
2022-11-20T20:42:26.436Z,2.80
2022-11-20T20:45:18.568Z,2.70
2022-11-20T20:48:10.711Z,2.70
2022-11-20T20:51:03.554Z,2.70
2022-11-20T20:53:55.713Z,2.80
2022-11-20T20:56:47.869Z,2.70
2022-11-20T20:59:39.985Z,2.70
2022-11-20T21:02:32.138Z,2.70
2022-11-20T21:05:26.823Z,2.70
2022-11-20T21:08:21.892Z,2.50
2022-11-20T21:11:16.001Z,2.30
2022-11-20T21:14:08.132Z,2.20
2022-11-20T21:17:00.272Z,2.30
2022-11-20T21:19:52.429Z,2.20
2022-11-20T21:22:44.573Z,2.20
2022-11-20T21:25:38.293Z,2.00
2022-11-20T21:28:35.569Z,2.00
2022-11-20T21:31:29.897Z,1.90
2022-11-20T21:34:23.471Z,1.90
2022-11-20T21:37:15.793Z,1.90
2022-11-20T21:40:08.460Z,1.80
2022-11-20T21:43:00.612Z,1.90
2022-11-20T21:45:53.065Z,2.00
2022-11-20T21:48:46.216Z,2.10
2022-11-20T21:51:38.529Z,2.10
2022-11-20T21:54:31.434Z,2.20
2022-11-20T21:57:23.643Z,2.20
2022-11-20T22:00:16.115Z,2.20
2022-11-20T22:03:08.232Z,2.20
2022-11-20T22:06:00.359Z,2.20
2022-11-20T22:08:52.717Z,2.10
2022-11-20T22:11:44.867Z,1.60
2022-11-20T22:14:37.027Z,1.30
2022-11-20T22:17:47.747Z,1.10
2022-11-20T22:20:40.648Z,1.00
2022-11-20T22:23:33.993Z,0.90
2022-11-20T22:26:28.407Z,0.80
2022-11-20T22:29:21.349Z,0.90
2022-11-20T22:32:13.533Z,0.90
2022-11-20T22:35:06.005Z,0.80
2022-11-20T22:37:58.103Z,0.80
2022-11-20T22:40:50.235Z,0.70
2022-11-20T22:43:43.620Z,0.70
2022-11-20T22:46:37.485Z,0.70
2022-11-20T22:49:29.705Z,0.70
2022-11-20T22:52:21.840Z,0.80
2022-11-20T22:55:16.448Z,0.90
2022-11-20T22:58:08.728Z,1.00
2022-11-20T23:01:14.291Z,1.00
2022-11-20T23:04:09.723Z,1.00
2022-11-20T23:07:01.827Z,1.00
2022-11-20T23:09:53.951Z,0.90
2022-11-20T23:12:46.096Z,0.80
2022-11-20T23:15:38.238Z,0.80
2022-11-20T23:18:30.626Z,0.80
2022-11-20T23:21:23.004Z,0.90
2022-11-20T23:24:15.110Z,0.80
2022-11-20T23:27:07.232Z,0.80
2022-11-20T23:29:59.445Z,0.80
2022-11-20T23:32:51.605Z,0.90
2022-11-20T23:35:47.246Z,0.90
2022-11-20T23:38:39.957Z,0.90
2022-11-20T23:41:32.128Z,1.00
2022-11-20T23:44:25.461Z,0.90
2022-11-20T23:47:17.965Z,0.90
2022-11-20T23:50:10.161Z,1.00
2022-11-20T23:53:02.414Z,1.10
2022-11-20T23:55:56.443Z,1.00
2022-11-20T23:58:48.655Z,1.00
